sensor_id;sensor_type;location;lat;lon;timestamp;P1;durP1;ratioP1;P2;durP2;ratioP2
54849;SDS011;47660;51.334;12.396;2023-04-01T00:01:07;1.85;;;0.30;;
54849;SDS011;47660;51.334;12.396;2023-04-01T00:03:33;2.70;;;0.50;;
54849;SDS011;47660;51.334;12.396;2023-04-01T00:05:59;0.77;;;0.60;;
54849;SDS011;47660;51.334;12.396;2023-04-01T00:08:25;0.50;;;0.50;;
54849;SDS011;47660;51.334;12.396;2023-04-01T00:10:51;0.93;;;0.47;;
54849;SDS011;47660;51.334;12.396;2023-04-01T00:13:20;0.70;;;0.30;;
54849;SDS011;47660;51.334;12.396;2023-04-01T00:15:47;1.02;;;0.57;;
54849;SDS011;47660;51.334;12.396;2023-04-01T00:18:13;0.75;;;0.40;;
54849;SDS011;47660;51.334;12.396;2023-04-01T00:20:39;0.45;;;0.40;;
54849;SDS011;47660;51.334;12.396;2023-04-01T00:23:11;1.35;;;0.35;;
54849;SDS011;47660;51.334;12.396;2023-04-01T00:25:40;0.35;;;0.30;;
54849;SDS011;47660;51.334;12.396;2023-04-01T00:28:05;0.60;;;0.35;;
54849;SDS011;47660;51.334;12.396;2023-04-01T00:30:31;1.27;;;0.60;;
54849;SDS011;47660;51.334;12.396;2023-04-01T00:32:56;0.82;;;0.47;;
54849;SDS011;47660;51.334;12.396;2023-04-01T00:35:22;1.38;;;0.50;;
54849;SDS011;47660;51.334;12.396;2023-04-01T00:37:47;0.30;;;0.30;;
54849;SDS011;47660;51.334;12.396;2023-04-01T00:40:27;1.98;;;0.50;;
54849;SDS011;47660;51.334;12.396;2023-04-01T00:42:53;2.47;;;0.50;;
54849;SDS011;47660;51.334;12.396;2023-04-01T00:45:37;0.50;;;0.15;;
54849;SDS011;47660;51.334;12.396;2023-04-01T00:48:06;0.38;;;0.38;;
54849;SDS011;47660;51.334;12.396;2023-04-01T00:50:35;4.95;;;0.70;;
54849;SDS011;47660;51.334;12.396;2023-04-01T00:53:03;0.28;;;0.25;;
54849;SDS011;47660;51.334;12.396;2023-04-01T00:55:32;0.40;;;0.30;;
54849;SDS011;47660;51.334;12.396;2023-04-01T00:58:01;2.28;;;0.63;;
54849;SDS011;47660;51.334;12.396;2023-04-01T01:00:28;1.75;;;0.50;;
54849;SDS011;47660;51.334;12.396;2023-04-01T01:02:54;4.43;;;0.60;;
54849;SDS011;47660;51.334;12.396;2023-04-01T01:05:21;0.98;;;0.57;;
54849;SDS011;47660;51.334;12.396;2023-04-01T01:08:13;1.20;;;0.50;;
54849;SDS011;47660;51.334;12.396;2023-04-01T01:11:01;0.28;;;0.20;;
54849;SDS011;47660;51.334;12.396;2023-04-01T01:13:34;0.90;;;0.65;;
54849;SDS011;47660;51.334;12.396;2023-04-01T01:16:17;2.22;;;0.60;;
54849;SDS011;47660;51.334;12.396;2023-04-01T01:22:07;3.03;;;0.60;;
54849;SDS011;47660;51.334;12.396;2023-04-01T01:25:10;0.63;;;0.50;;
54849;SDS011;47660;51.334;12.396;2023-04-01T01:28:07;1.75;;;0.38;;
54849;SDS011;47660;51.334;12.396;2023-04-01T01:36:40;0.70;;;0.55;;
54849;SDS011;47660;51.334;12.396;2023-04-01T01:39:10;1.48;;;0.57;;
54849;SDS011;47660;51.334;12.396;2023-04-01T01:41:39;1.40;;;0.60;;
54849;SDS011;47660;51.334;12.396;2023-04-01T01:44:08;0.10;;;0.10;;
54849;SDS011;47660;51.334;12.396;2023-04-01T01:46:38;2.22;;;0.55;;
54849;SDS011;47660;51.334;12.396;2023-04-01T01:49:07;0.20;;;0.20;;
54849;SDS011;47660;51.334;12.396;2023-04-01T01:51:36;0.65;;;0.50;;
54849;SDS011;47660;51.334;12.396;2023-04-01T01:54:01;1.10;;;0.60;;
54849;SDS011;47660;51.334;12.396;2023-04-01T01:56:27;1.27;;;0.60;;
54849;SDS011;47660;51.334;12.396;2023-04-01T01:58:57;0.65;;;0.57;;
54849;SDS011;47660;51.334;12.396;2023-04-01T02:01:29;0.30;;;0.30;;
54849;SDS011;47660;51.334;12.396;2023-04-01T02:04:00;0.40;;;0.40;;
54849;SDS011;47660;51.334;12.396;2023-04-01T02:06:28;1.48;;;0.68;;
54849;SDS011;47660;51.334;12.396;2023-04-01T02:11:34;1.73;;;0.40;;
54849;SDS011;47660;51.334;12.396;2023-04-01T02:14:10;0.90;;;0.57;;
54849;SDS011;47660;51.334;12.396;2023-04-01T02:16:43;0.52;;;0.40;;
54849;SDS011;47660;51.334;12.396;2023-04-01T02:19:13;0.43;;;0.40;;
54849;SDS011;47660;51.334;12.396;2023-04-01T02:21:47;5.63;;;0.77;;
54849;SDS011;47660;51.334;12.396;2023-04-01T02:24:21;3.10;;;0.50;;
54849;SDS011;47660;51.334;12.396;2023-04-01T02:26:50;3.75;;;0.35;;
54849;SDS011;47660;51.334;12.396;2023-04-01T02:29:19;1.35;;;0.60;;
54849;SDS011;47660;51.334;12.396;2023-04-01T02:31:47;0.32;;;0.30;;
54849;SDS011;47660;51.334;12.396;2023-04-01T02:34:16;0.52;;;0.35;;
54849;SDS011;47660;51.334;12.396;2023-04-01T02:36:42;0.50;;;0.40;;
54849;SDS011;47660;51.334;12.396;2023-04-01T02:39:08;2.08;;;0.30;;
54849;SDS011;47660;51.334;12.396;2023-04-01T02:41:40;0.30;;;0.30;;
54849;SDS011;47660;51.334;12.396;2023-04-01T02:44:07;2.75;;;0.63;;
54849;SDS011;47660;51.334;12.396;2023-04-01T02:46:33;0.68;;;0.35;;
54849;SDS011;47660;51.334;12.396;2023-04-01T02:49:00;0.60;;;0.30;;
54849;SDS011;47660;51.334;12.396;2023-04-01T02:51:28;0.73;;;0.45;;
54849;SDS011;47660;51.334;12.396;2023-04-01T02:53:56;0.17;;;0.17;;
54849;SDS011;47660;51.334;12.396;2023-04-01T02:56:21;1.65;;;0.50;;
54849;SDS011;47660;51.334;12.396;2023-04-01T02:58:49;0.30;;;0.25;;
54849;SDS011;47660;51.334;12.396;2023-04-01T03:01:18;1.55;;;0.32;;
54849;SDS011;47660;51.334;12.396;2023-04-01T03:03:44;1.13;;;0.70;;
54849;SDS011;47660;51.334;12.396;2023-04-01T03:06:11;0.93;;;0.47;;
54849;SDS011;47660;51.334;12.396;2023-04-01T03:08:37;1.13;;;0.73;;
54849;SDS011;47660;51.334;12.396;2023-04-01T03:11:03;2.35;;;0.32;;
54849;SDS011;47660;51.334;12.396;2023-04-01T03:13:31;4.43;;;0.50;;
54849;SDS011;47660;51.334;12.396;2023-04-01T03:16:01;1.40;;;0.60;;
54849;SDS011;47660;51.334;12.396;2023-04-01T03:18:27;0.57;;;0.38;;
54849;SDS011;47660;51.334;12.396;2023-04-01T03:20:53;0.40;;;0.32;;
54849;SDS011;47660;51.334;12.396;2023-04-01T03:23:18;0.32;;;0.32;;
54849;SDS011;47660;51.334;12.396;2023-04-01T03:25:46;0.73;;;0.60;;
54849;SDS011;47660;51.334;12.396;2023-04-01T03:28:12;3.22;;;0.55;;
54849;SDS011;47660;51.334;12.396;2023-04-01T03:30:40;1.75;;;0.50;;
54849;SDS011;47660;51.334;12.396;2023-04-01T03:33:08;2.70;;;0.70;;
54849;SDS011;47660;51.334;12.396;2023-04-01T03:35:36;2.45;;;0.55;;
54849;SDS011;47660;51.334;12.396;2023-04-01T03:38:02;0.75;;;0.63;;
54849;SDS011;47660;51.334;12.396;2023-04-01T03:40:28;2.15;;;0.47;;
54849;SDS011;47660;51.334;12.396;2023-04-01T03:42:53;3.20;;;0.75;;
54849;SDS011;47660;51.334;12.396;2023-04-01T03:45:19;1.40;;;0.40;;
54849;SDS011;47660;51.334;12.396;2023-04-01T03:47:45;2.35;;;0.50;;
54849;SDS011;47660;51.334;12.396;2023-04-01T03:50:10;0.95;;;0.55;;
54849;SDS011;47660;51.334;12.396;2023-04-01T03:52:36;3.30;;;0.70;;
54849;SDS011;47660;51.334;12.396;2023-04-01T03:55:02;4.75;;;0.98;;
54849;SDS011;47660;51.334;12.396;2023-04-01T03:57:27;1.00;;;0.50;;
54849;SDS011;47660;51.334;12.396;2023-04-01T03:59:53;2.60;;;0.85;;
54849;SDS011;47660;51.334;12.396;2023-04-01T04:02:18;0.52;;;0.30;;
54849;SDS011;47660;51.334;12.396;2023-04-01T04:04:44;0.50;;;0.50;;
54849;SDS011;47660;51.334;12.396;2023-04-01T04:07:11;2.72;;;0.40;;
54849;SDS011;47660;51.334;12.396;2023-04-01T04:09:40;0.22;;;0.22;;
54849;SDS011;47660;51.334;12.396;2023-04-01T04:12:06;1.25;;;0.40;;
54849;SDS011;47660;51.334;12.396;2023-04-01T04:14:34;1.00;;;0.30;;
54849;SDS011;47660;51.334;12.396;2023-04-01T04:17:03;0.93;;;0.43;;
54849;SDS011;47660;51.334;12.396;2023-04-01T04:19:38;2.97;;;0.50;;
54849;SDS011;47660;51.334;12.396;2023-04-01T04:22:06;0.77;;;0.60;;
54849;SDS011;47660;51.334;12.396;2023-04-01T04:24:33;1.88;;;0.50;;
54849;SDS011;47660;51.334;12.396;2023-04-01T04:27:04;1.85;;;0.75;;
54849;SDS011;47660;51.334;12.396;2023-04-01T04:29:33;0.30;;;0.30;;
54849;SDS011;47660;51.334;12.396;2023-04-01T04:31:58;0.40;;;0.40;;
54849;SDS011;47660;51.334;12.396;2023-04-01T04:34:26;3.35;;;0.40;;
54849;SDS011;47660;51.334;12.396;2023-04-01T04:36:52;3.83;;;0.70;;
54849;SDS011;47660;51.334;12.396;2023-04-01T04:39:17;0.98;;;0.57;;
54849;SDS011;47660;51.334;12.396;2023-04-01T04:41:43;0.98;;;0.55;;
54849;SDS011;47660;51.334;12.396;2023-04-01T04:44:08;0.50;;;0.50;;
54849;SDS011;47660;51.334;12.396;2023-04-01T04:46:33;1.25;;;0.60;;
54849;SDS011;47660;51.334;12.396;2023-04-01T04:48:59;0.57;;;0.50;;
54849;SDS011;47660;51.334;12.396;2023-04-01T04:51:24;0.63;;;0.52;;
54849;SDS011;47660;51.334;12.396;2023-04-01T04:53:50;0.50;;;0.40;;
54849;SDS011;47660;51.334;12.396;2023-04-01T04:56:20;0.40;;;0.40;;
54849;SDS011;47660;51.334;12.396;2023-04-01T04:58:46;0.95;;;0.55;;
54849;SDS011;47660;51.334;12.396;2023-04-01T05:01:13;0.68;;;0.63;;
54849;SDS011;47660;51.334;12.396;2023-04-01T05:03:41;3.53;;;0.60;;
54849;SDS011;47660;51.334;12.396;2023-04-01T05:06:10;0.77;;;0.30;;
54849;SDS011;47660;51.334;12.396;2023-04-01T05:08:43;4.65;;;0.45;;
54849;SDS011;47660;51.334;12.396;2023-04-01T05:11:16;0.82;;;0.40;;
54849;SDS011;47660;51.334;12.396;2023-04-01T05:13:43;2.13;;;0.40;;
54849;SDS011;47660;51.334;12.396;2023-04-01T05:16:11;1.77;;;0.50;;
54849;SDS011;47660;51.334;12.396;2023-04-01T05:18:41;2.28;;;0.60;;
54849;SDS011;47660;51.334;12.396;2023-04-01T05:21:07;0.75;;;0.70;;
54849;SDS011;47660;51.334;12.396;2023-04-01T05:23:33;1.77;;;0.65;;
54849;SDS011;47660;51.334;12.396;2023-04-01T05:26:02;3.47;;;0.80;;
54849;SDS011;47660;51.334;12.396;2023-04-01T05:28:29;1.13;;;0.45;;
54849;SDS011;47660;51.334;12.396;2023-04-01T05:30:55;3.10;;;0.80;;
54849;SDS011;47660;51.334;12.396;2023-04-01T05:33:23;1.05;;;0.90;;
54849;SDS011;47660;51.334;12.396;2023-04-01T05:35:49;2.80;;;0.88;;
54849;SDS011;47660;51.334;12.396;2023-04-01T05:38:14;3.15;;;0.95;;
54849;SDS011;47660;51.334;12.396;2023-04-01T05:40:40;1.25;;;0.60;;
54849;SDS011;47660;51.334;12.396;2023-04-01T05:43:08;1.67;;;0.60;;
54849;SDS011;47660;51.334;12.396;2023-04-01T05:45:36;5.38;;;0.70;;
54849;SDS011;47660;51.334;12.396;2023-04-01T05:48:02;1.50;;;0.65;;
54849;SDS011;47660;51.334;12.396;2023-04-01T05:50:28;1.40;;;0.70;;
54849;SDS011;47660;51.334;12.396;2023-04-01T05:52:54;0.93;;;0.60;;
54849;SDS011;47660;51.334;12.396;2023-04-01T05:55:19;1.80;;;0.38;;
54849;SDS011;47660;51.334;12.396;2023-04-01T05:57:45;0.60;;;0.50;;
54849;SDS011;47660;51.334;12.396;2023-04-01T06:00:14;1.25;;;0.60;;
54849;SDS011;47660;51.334;12.396;2023-04-01T06:02:41;1.75;;;0.50;;
54849;SDS011;47660;51.334;12.396;2023-04-01T06:05:11;0.88;;;0.50;;
54849;SDS011;47660;51.334;12.396;2023-04-01T06:07:43;0.80;;;0.50;;
54849;SDS011;47660;51.334;12.396;2023-04-01T06:10:15;2.75;;;0.50;;
54849;SDS011;47660;51.334;12.396;2023-04-01T06:15:55;3.20;;;1.25;;
54849;SDS011;47660;51.334;12.396;2023-04-01T06:18:41;0.50;;;0.50;;
54849;SDS011;47660;51.334;12.396;2023-04-01T06:21:23;1.20;;;0.60;;
54849;SDS011;47660;51.334;12.396;2023-04-01T06:35:20;1.13;;;0.52;;
54849;SDS011;47660;51.334;12.396;2023-04-01T06:40:52;2.10;;;1.00;;
54849;SDS011;47660;51.334;12.396;2023-04-01T06:43:35;1.35;;;0.70;;
54849;SDS011;47660;51.334;12.396;2023-04-01T06:46:41;1.65;;;0.57;;
54849;SDS011;47660;51.334;12.396;2023-04-01T06:49:24;3.13;;;0.50;;
54849;SDS011;47660;51.334;12.396;2023-04-01T06:54:42;0.50;;;0.43;;
54849;SDS011;47660;51.334;12.396;2023-04-01T06:57:28;1.27;;;0.70;;
54849;SDS011;47660;51.334;12.396;2023-04-01T06:59:55;0.50;;;0.50;;
54849;SDS011;47660;51.334;12.396;2023-04-01T07:03:26;1.70;;;0.52;;
54849;SDS011;47660;51.334;12.396;2023-04-01T07:05:23;1.30;;;0.80;;
54849;SDS011;47660;51.334;12.396;2023-04-01T07:07:52;1.60;;;0.63;;
54849;SDS011;47660;51.334;12.396;2023-04-01T07:10:43;1.45;;;0.57;;
54849;SDS011;47660;51.334;12.396;2023-04-01T07:13:19;0.40;;;0.40;;
54849;SDS011;47660;51.334;12.396;2023-04-01T07:19:01;2.10;;;0.73;;
54849;SDS011;47660;51.334;12.396;2023-04-01T07:21:56;0.55;;;0.32;;
54849;SDS011;47660;51.334;12.396;2023-04-01T07:27:05;2.20;;;0.50;;
54849;SDS011;47660;51.334;12.396;2023-04-01T07:29:34;1.63;;;0.52;;
54849;SDS011;47660;51.334;12.396;2023-04-01T07:34:45;1.33;;;0.40;;
54849;SDS011;47660;51.334;12.396;2023-04-01T07:37:31;1.35;;;0.43;;
54849;SDS011;47660;51.334;12.396;2023-04-01T07:51:19;0.45;;;0.32;;
54849;SDS011;47660;51.334;12.396;2023-04-01T08:13:53;0.30;;;0.30;;
54849;SDS011;47660;51.334;12.396;2023-04-01T08:16:35;0.30;;;0.30;;
54849;SDS011;47660;51.334;12.396;2023-04-01T08:19:30;0.93;;;0.20;;
54849;SDS011;47660;51.334;12.396;2023-04-01T08:22:15;2.92;;;0.40;;
54849;SDS011;47660;51.334;12.396;2023-04-01T08:24:46;0.43;;;0.30;;
54849;SDS011;47660;51.334;12.396;2023-04-01T08:27:16;0.65;;;0.35;;
54849;SDS011;47660;51.334;12.396;2023-04-01T08:30:16;0.60;;;0.30;;
54849;SDS011;47660;51.334;12.396;2023-04-01T08:33:30;0.40;;;0.30;;
54849;SDS011;47660;51.334;12.396;2023-04-01T08:45:17;3.20;;;0.40;;
54849;SDS011;47660;51.334;12.396;2023-04-01T08:47:16;0.95;;;0.25;;
54849;SDS011;47660;51.334;12.396;2023-04-01T08:52:41;0.88;;;0.47;;
54849;SDS011;47660;51.334;12.396;2023-04-01T08:55:35;0.98;;;0.30;;
54849;SDS011;47660;51.334;12.396;2023-04-01T09:18:11;0.68;;;0.22;;
54849;SDS011;47660;51.334;12.396;2023-04-01T09:40:48;0.45;;;0.38;;
54849;SDS011;47660;51.334;12.396;2023-04-01T09:55:25;1.48;;;0.25;;
54849;SDS011;47660;51.334;12.396;2023-04-01T10:13:05;0.47;;;0.40;;
54849;SDS011;47660;51.334;12.396;2023-04-01T10:19:11;0.40;;;0.30;;
54849;SDS011;47660;51.334;12.396;2023-04-01T10:31:11;1.27;;;0.50;;
54849;SDS011;47660;51.334;12.396;2023-04-01T10:36:51;0.50;;;0.30;;
54849;SDS011;47660;51.334;12.396;2023-04-01T10:48:43;0.40;;;0.40;;
54849;SDS011;47660;51.334;12.396;2023-04-01T11:02:57;0.15;;;0.13;;
54849;SDS011;47660;51.334;12.396;2023-04-01T11:05:41;0.20;;;0.20;;
54849;SDS011;47660;51.334;12.396;2023-04-01T11:14:46;0.15;;;0.10;;
54849;SDS011;47660;51.334;12.396;2023-04-01T11:26:20;0.40;;;0.25;;
54849;SDS011;47660;51.334;12.396;2023-04-01T11:29:07;0.20;;;0.20;;
54849;SDS011;47660;51.334;12.396;2023-04-01T11:40:56;0.10;;;0.10;;
54849;SDS011;47660;51.334;12.396;2023-04-01T11:43:52;0.15;;;0.10;;
54849;SDS011;47660;51.334;12.396;2023-04-01T11:52:31;0.40;;;0.32;;
54849;SDS011;47660;51.334;12.396;2023-04-01T11:55:23;0.25;;;0.22;;
54849;SDS011;47660;51.334;12.396;2023-04-01T12:00:51;0.20;;;0.20;;
54849;SDS011;47660;51.334;12.396;2023-04-01T12:09:12;0.20;;;0.20;;
54849;SDS011;47660;51.334;12.396;2023-04-01T12:45:41;1.30;;;0.70;;
54849;SDS011;47660;51.334;12.396;2023-04-01T12:54:10;0.98;;;0.50;;
54849;SDS011;47660;51.334;12.396;2023-04-01T13:02:26;2.20;;;0.20;;
54849;SDS011;47660;51.334;12.396;2023-04-01T13:07:53;1.20;;;0.38;;
54849;SDS011;47660;51.334;12.396;2023-04-01T13:15:45;0.20;;;0.20;;
54849;SDS011;47660;51.334;12.396;2023-04-01T13:29:10;0.30;;;0.30;;
54849;SDS011;47660;51.334;12.396;2023-04-01T13:34:39;0.60;;;0.30;;
54849;SDS011;47660;51.334;12.396;2023-04-01T13:43:03;2.50;;;0.40;;
54849;SDS011;47660;51.334;12.396;2023-04-01T13:48:11;0.20;;;0.20;;
54849;SDS011;47660;51.334;12.396;2023-04-01T14:02:22;1.65;;;0.15;;
54849;SDS011;47660;51.334;12.396;2023-04-01T14:11:15;0.20;;;0.20;;
54849;SDS011;47660;51.334;12.396;2023-04-01T14:22:19;0.38;;;0.20;;
54849;SDS011;47660;51.334;12.396;2023-04-01T14:39:33;1.73;;;0.40;;
54849;SDS011;47660;51.334;12.396;2023-04-01T14:50:21;0.30;;;0.30;;
54849;SDS011;47660;51.334;12.396;2023-04-01T14:55:31;0.82;;;0.60;;
54849;SDS011;47660;51.334;12.396;2023-04-01T15:00:55;0.32;;;0.25;;
54849;SDS011;47660;51.334;12.396;2023-04-01T15:03:36;0.20;;;0.20;;
54849;SDS011;47660;51.334;12.396;2023-04-01T15:09:40;0.25;;;0.25;;
54849;SDS011;47660;51.334;12.396;2023-04-01T15:26:17;0.40;;;0.40;;
54849;SDS011;47660;51.334;12.396;2023-04-01T16:05:21;0.77;;;0.70;;
54849;SDS011;47660;51.334;12.396;2023-04-01T16:16:43;1.63;;;0.75;;
54849;SDS011;47660;51.334;12.396;2023-04-01T16:22:20;1.83;;;0.90;;
54849;SDS011;47660;51.334;12.396;2023-04-01T16:39:26;0.80;;;0.52;;
54849;SDS011;47660;51.334;12.396;2023-04-01T16:47:35;1.65;;;0.80;;
54849;SDS011;47660;51.334;12.396;2023-04-01T16:50:13;2.00;;;0.80;;
54849;SDS011;47660;51.334;12.396;2023-04-01T16:55:21;1.70;;;0.90;;
54849;SDS011;47660;51.334;12.396;2023-04-01T16:58:00;1.27;;;0.90;;
54849;SDS011;47660;51.334;12.396;2023-04-01T17:00:28;3.20;;;1.10;;
54849;SDS011;47660;51.334;12.396;2023-04-01T17:11:27;0.63;;;0.50;;
54849;SDS011;47660;51.334;12.396;2023-04-01T17:16:59;1.02;;;0.70;;
54849;SDS011;47660;51.334;12.396;2023-04-01T17:20:12;1.63;;;0.90;;
54849;SDS011;47660;51.334;12.396;2023-04-01T17:23:01;1.13;;;0.70;;
54849;SDS011;47660;51.334;12.396;2023-04-01T17:30:58;0.93;;;0.70;;
54849;SDS011;47660;51.334;12.396;2023-04-01T17:41:22;2.42;;;1.17;;
54849;SDS011;47660;51.334;12.396;2023-04-01T17:52:19;3.80;;;1.40;;
54849;SDS011;47660;51.334;12.396;2023-04-01T17:54:57;1.83;;;1.30;;
54849;SDS011;47660;51.334;12.396;2023-04-01T17:57:46;1.63;;;1.10;;
54849;SDS011;47660;51.334;12.396;2023-04-01T18:00:33;1.67;;;1.02;;
54849;SDS011;47660;51.334;12.396;2023-04-01T18:06:29;2.53;;;1.20;;
54849;SDS011;47660;51.334;12.396;2023-04-01T18:15:06;3.30;;;1.73;;
54849;SDS011;47660;51.334;12.396;2023-04-01T18:23:11;1.92;;;1.30;;
54849;SDS011;47660;51.334;12.396;2023-04-01T18:25:38;2.33;;;1.63;;
54849;SDS011;47660;51.334;12.396;2023-04-01T18:30:53;2.35;;;1.55;;
54849;SDS011;47660;51.334;12.396;2023-04-01T18:42:06;3.45;;;1.67;;
54849;SDS011;47660;51.334;12.396;2023-04-01T18:44:45;4.10;;;2.10;;
54849;SDS011;47660;51.334;12.396;2023-04-01T18:52:42;3.53;;;1.67;;
54849;SDS011;47660;51.334;12.396;2023-04-01T18:57:54;3.08;;;1.20;;
54849;SDS011;47660;51.334;12.396;2023-04-01T19:03:20;5.75;;;1.92;;
54849;SDS011;47660;51.334;12.396;2023-04-01T19:05:53;3.60;;;1.77;;
54849;SDS011;47660;51.334;12.396;2023-04-01T19:19:42;6.50;;;3.03;;
54849;SDS011;47660;51.334;12.396;2023-04-01T19:22:20;2.60;;;2.20;;
54849;SDS011;47660;51.334;12.396;2023-04-01T19:36:22;2.17;;;1.50;;
54849;SDS011;47660;51.334;12.396;2023-04-01T19:39:14;3.58;;;2.17;;
54849;SDS011;47660;51.334;12.396;2023-04-01T19:44:31;4.00;;;2.20;;
54849;SDS011;47660;51.334;12.396;2023-04-01T19:55:45;3.88;;;2.40;;
54849;SDS011;47660;51.334;12.396;2023-04-01T19:58:16;5.30;;;3.15;;
54849;SDS011;47660;51.334;12.396;2023-04-01T20:00:45;3.10;;;2.05;;
54849;SDS011;47660;51.334;12.396;2023-04-01T20:27:56;3.08;;;1.95;;
54849;SDS011;47660;51.334;12.396;2023-04-01T20:43:58;2.13;;;1.58;;
54849;SDS011;47660;51.334;12.396;2023-04-01T20:46:30;2.72;;;1.98;;
54849;SDS011;47660;51.334;12.396;2023-04-01T20:51:39;2.30;;;1.50;;
54849;SDS011;47660;51.334;12.396;2023-04-01T21:05:22;3.00;;;1.65;;
54849;SDS011;47660;51.334;12.396;2023-04-01T21:07:58;2.97;;;2.17;;
54849;SDS011;47660;51.334;12.396;2023-04-01T21:10:50;2.40;;;1.60;;
54849;SDS011;47660;51.334;12.396;2023-04-01T21:38:27;2.92;;;1.73;;
54849;SDS011;47660;51.334;12.396;2023-04-01T22:05:51;2.65;;;1.48;;
54849;SDS011;47660;51.334;12.396;2023-04-01T22:11:23;3.90;;;2.47;;
54849;SDS011;47660;51.334;12.396;2023-04-01T22:22:19;3.55;;;1.75;;
54849;SDS011;47660;51.334;12.396;2023-04-01T22:27:55;1.80;;;1.35;;
54849;SDS011;47660;51.334;12.396;2023-04-01T22:30:26;2.65;;;1.25;;
54849;SDS011;47660;51.334;12.396;2023-04-01T22:33:04;2.22;;;1.48;;
54849;SDS011;47660;51.334;12.396;2023-04-01T22:48:19;2.75;;;1.30;;
54849;SDS011;47660;51.334;12.396;2023-04-01T22:54:07;4.00;;;1.27;;
54849;SDS011;47660;51.334;12.396;2023-04-01T22:57:08;2.15;;;1.38;;
54849;SDS011;47660;51.334;12.396;2023-04-01T22:59:31;1.13;;;1.00;;
54849;SDS011;47660;51.334;12.396;2023-04-01T23:02:04;3.22;;;1.90;;
54849;SDS011;47660;51.334;12.396;2023-04-01T23:04:40;1.02;;;0.88;;
54849;SDS011;47660;51.334;12.396;2023-04-01T23:09:52;1.67;;;1.20;;
54849;SDS011;47660;51.334;12.396;2023-04-01T23:12:22;2.63;;;1.92;;
54849;SDS011;47660;51.334;12.396;2023-04-01T23:14:50;2.92;;;1.50;;
54849;SDS011;47660;51.334;12.396;2023-04-01T23:18:03;1.27;;;0.90;;
54849;SDS011;47660;51.334;12.396;2023-04-01T23:20:23;1.90;;;1.20;;
54849;SDS011;47660;51.334;12.396;2023-04-01T23:25:31;4.72;;;2.47;;
54849;SDS011;47660;51.334;12.396;2023-04-01T23:35:48;1.65;;;1.25;;
54849;SDS011;47660;51.334;12.396;2023-04-01T23:38:20;1.48;;;0.95;;
54849;SDS011;47660;51.334;12.396;2023-04-01T23:40:49;2.10;;;1.33;;
54849;SDS011;47660;51.334;12.396;2023-04-01T23:45:54;2.22;;;1.65;;
54849;SDS011;47660;51.334;12.396;2023-04-01T23:48:23;2.78;;;1.60;;
54849;SDS011;47660;51.334;12.396;2023-04-01T23:50:55;1.92;;;1.35;;
54849;SDS011;47660;51.334;12.396;2023-04-01T23:53:24;2.55;;;1.63;;
54849;SDS011;47660;51.334;12.396;2023-04-01T23:55:51;3.00;;;2.10;;
54849;SDS011;47660;51.334;12.396;2023-04-01T23:58:22;2.83;;;1.40;;
